createdAt,value
2018-03-17T00:01:29.662Z,32.96
2018-03-17T00:03:55.493Z,33.62
2018-03-17T00:06:21.317Z,32.29
2018-03-17T00:08:47.152Z,32.88
2018-03-17T00:11:12.990Z,32.75
2018-03-17T00:13:39.774Z,32.63
2018-03-17T00:16:05.632Z,32.83
2018-03-17T00:18:31.491Z,32.67
2018-03-17T00:20:58.182Z,32.61
2018-03-17T00:23:24.861Z,32.58
2018-03-17T00:25:51.690Z,32.96
2018-03-17T00:28:18.382Z,32.61
2018-03-17T00:30:45.112Z,32.24
2018-03-17T00:33:10.972Z,32.36
2018-03-17T00:35:36.866Z,32.39
2018-03-17T00:38:03.696Z,32.76
2018-03-17T00:40:29.559Z,31.98
2018-03-17T00:42:56.224Z,32.20
2018-03-17T00:45:22.094Z,32.00
2018-03-17T00:47:48.772Z,32.19
2018-03-17T00:50:14.630Z,32.54
2018-03-17T00:52:40.458Z,32.27
2018-03-17T00:55:06.287Z,31.75
2018-03-17T00:57:33.050Z,31.98
2018-03-17T00:59:58.883Z,32.49
2018-03-17T01:02:24.712Z,32.71
2018-03-17T01:04:50.594Z,32.76
2018-03-17T01:07:16.469Z,32.73
2018-03-17T01:09:42.294Z,32.69
2018-03-17T01:12:09.096Z,32.36
2018-03-17T01:14:34.941Z,32.41
2018-03-17T01:17:01.794Z,32.61
2018-03-17T01:19:28.462Z,32.75
2018-03-17T01:21:54.327Z,32.64
2018-03-17T01:24:21.070Z,32.43
2018-03-17T01:26:46.924Z,32.57
2018-03-17T01:29:13.629Z,32.38
2018-03-17T01:31:40.236Z,32.55
2018-03-17T01:34:06.053Z,32.32
2018-03-17T01:36:32.672Z,33.09
2018-03-17T01:38:59.422Z,32.50
2018-03-17T01:41:25.295Z,32.28
2018-03-17T01:43:51.115Z,32.77
2018-03-17T01:46:17.963Z,32.81
2018-03-17T01:48:44.726Z,33.05
2018-03-17T01:51:11.522Z,33.12
2018-03-17T01:53:38.229Z,32.66
2018-03-17T01:56:04.959Z,32.08
2018-03-17T01:58:31.780Z,32.46
2018-03-17T02:00:58.622Z,32.47
2018-03-17T02:03:25.455Z,32.28
2018-03-17T02:05:52.214Z,32.27
2018-03-17T02:08:18.088Z,31.99
2018-03-17T02:10:43.938Z,32.48
2018-03-17T02:13:09.805Z,32.18
2018-03-17T02:15:35.674Z,32.64
2018-03-17T02:18:01.499Z,31.99
2018-03-17T02:20:27.440Z,32.22
2018-03-17T02:22:53.311Z,32.10
2018-03-17T02:25:19.176Z,31.50
2018-03-17T02:27:44.994Z,31.64
2018-03-17T02:30:10.908Z,31.88
2018-03-17T02:32:36.740Z,31.50
2018-03-17T02:35:02.590Z,31.49
2018-03-17T02:37:28.455Z,31.99
2018-03-17T02:39:54.281Z,31.29
2018-03-17T02:42:20.142Z,31.30
2018-03-17T02:44:45.974Z,31.75
2018-03-17T02:47:11.814Z,31.64
2018-03-17T02:49:37.663Z,31.53
2018-03-17T02:52:03.514Z,31.34
2018-03-17T02:54:29.339Z,31.64
2018-03-17T02:56:55.246Z,31.37
2018-03-17T02:59:21.867Z,31.25
2018-03-17T03:01:47.693Z,31.12
2018-03-17T03:04:13.536Z,31.39
2018-03-17T03:06:39.414Z,31.45
2018-03-17T03:09:05.225Z,31.11
2018-03-17T03:11:31.046Z,30.96
2018-03-17T03:13:56.867Z,31.06
2018-03-17T03:16:22.727Z,30.66
2018-03-17T03:18:48.562Z,31.09
2018-03-17T03:21:14.424Z,30.56
2018-03-17T03:23:40.251Z,31.01
2018-03-17T03:26:06.086Z,30.79
2018-03-17T03:28:31.911Z,30.83
2018-03-17T03:30:57.732Z,30.81
2018-03-17T03:33:23.555Z,30.78
2018-03-17T03:35:49.382Z,31.14
2018-03-17T03:38:15.205Z,30.92
2018-03-17T03:40:41.030Z,30.79
2018-03-17T03:43:06.859Z,31.15
2018-03-17T03:45:32.686Z,31.00
2018-03-17T03:47:58.515Z,31.25
2018-03-17T03:50:24.336Z,31.21
2018-03-17T03:52:50.155Z,31.40
2018-03-17T03:55:15.986Z,31.02
2018-03-17T03:57:41.825Z,31.44
2018-03-17T04:00:07.647Z,30.83
2018-03-17T04:02:33.478Z,30.83
2018-03-17T04:04:59.307Z,31.29
2018-03-17T04:07:25.122Z,31.31
2018-03-17T04:09:50.944Z,31.71
2018-03-17T04:12:16.789Z,30.81
2018-03-17T04:14:42.628Z,30.83
2018-03-17T04:17:08.462Z,30.95
2018-03-17T04:19:34.294Z,30.72
2018-03-17T04:22:00.139Z,30.27
2018-03-17T04:24:25.982Z,30.73
2018-03-17T04:26:51.885Z,30.85
2018-03-17T04:29:17.718Z,30.72
2018-03-17T04:31:43.575Z,30.46
2018-03-17T04:34:09.437Z,30.90
2018-03-17T04:36:35.303Z,31.20
2018-03-17T04:39:01.134Z,30.66
2018-03-17T04:41:26.973Z,30.96
2018-03-17T04:43:52.802Z,31.21
2018-03-17T04:46:18.625Z,30.75
2018-03-17T04:48:44.454Z,31.61
2018-03-17T04:51:10.310Z,30.90
2018-03-17T04:53:36.139Z,30.67
2018-03-17T04:56:01.998Z,30.59
2018-03-17T04:58:27.840Z,30.80
2018-03-17T05:00:53.672Z,30.85
2018-03-17T05:03:19.534Z,31.20
2018-03-17T05:05:45.375Z,30.49
2018-03-17T05:08:11.277Z,30.63
2018-03-17T05:10:37.109Z,30.82
2018-03-17T05:13:02.939Z,30.29
2018-03-17T05:15:28.770Z,30.42
2018-03-17T05:17:54.588Z,30.09
2018-03-17T05:20:20.428Z,30.13
2018-03-17T05:22:46.254Z,30.30
2018-03-17T05:25:12.120Z,30.48
2018-03-17T05:27:38.923Z,30.46
2018-03-17T05:30:04.795Z,30.22
2018-03-17T05:32:30.615Z,30.25
2018-03-17T05:34:56.482Z,30.15
2018-03-17T05:37:22.328Z,30.37
2018-03-17T05:39:48.210Z,30.41
2018-03-17T05:42:14.043Z,30.53
2018-03-17T05:44:39.870Z,30.54
2018-03-17T05:47:05.712Z,30.62
2018-03-17T05:49:31.575Z,30.85
2018-03-17T05:51:57.398Z,30.75
2018-03-17T05:54:23.223Z,31.13
2018-03-17T05:56:49.045Z,30.58
2018-03-17T05:59:14.863Z,30.80
2018-03-17T06:01:40.694Z,30.71
2018-03-17T06:04:06.557Z,30.24
2018-03-17T06:06:32.431Z,30.52
2018-03-17T06:08:58.270Z,30.15
2018-03-17T06:11:24.109Z,30.07
2018-03-17T06:13:50.804Z,30.42
2018-03-17T06:16:16.680Z,30.59
2018-03-17T06:18:42.539Z,30.59
2018-03-17T06:21:08.367Z,30.50
2018-03-17T06:23:34.210Z,30.87
2018-03-17T06:26:00.036Z,30.53
2018-03-17T06:28:25.878Z,30.41
2018-03-17T06:30:51.727Z,30.54
2018-03-17T06:33:17.543Z,30.62
2018-03-17T06:35:43.359Z,30.18
2018-03-17T06:38:09.187Z,30.54
2018-03-17T06:40:35.130Z,30.32
2018-03-17T06:43:00.971Z,30.33
2018-03-17T06:45:26.801Z,30.65
2018-03-17T06:47:52.641Z,30.10
2018-03-17T06:50:18.518Z,30.53
2018-03-17T06:52:44.372Z,30.22
2018-03-17T06:55:10.250Z,29.96
2018-03-17T06:57:36.058Z,30.36
2018-03-17T07:00:01.872Z,30.09
2018-03-17T07:02:27.692Z,30.25
2018-03-17T07:04:53.545Z,30.31
2018-03-17T07:07:19.383Z,30.16
2018-03-17T07:09:45.214Z,30.64
2018-03-17T07:12:11.054Z,29.82
2018-03-17T07:14:36.908Z,30.22
2018-03-17T07:17:02.763Z,29.97
2018-03-17T07:19:28.609Z,30.27
2018-03-17T07:21:54.449Z,29.92
2018-03-17T07:24:20.278Z,29.95
2018-03-17T07:26:46.110Z,29.78
2018-03-17T07:29:11.983Z,29.94
2018-03-17T07:31:37.803Z,30.02
2018-03-17T07:34:03.626Z,30.14
2018-03-17T07:36:29.455Z,29.33
2018-03-17T07:38:55.330Z,29.97
2018-03-17T07:41:21.190Z,30.09
2018-03-17T07:43:47.025Z,29.77
2018-03-17T07:46:12.848Z,29.66
2018-03-17T07:48:38.840Z,30.05
2018-03-17T07:51:04.672Z,30.15
2018-03-17T07:53:34.547Z,29.73
2018-03-17T07:56:00.408Z,29.79
2018-03-17T07:58:26.240Z,29.79
2018-03-17T08:00:52.120Z,30.02
2018-03-17T08:03:18.005Z,30.16
2018-03-17T08:05:43.920Z,30.05
2018-03-17T08:08:09.743Z,29.87
2018-03-17T08:10:35.612Z,29.86
2018-03-17T08:13:01.455Z,30.15
2018-03-17T08:15:27.324Z,29.80
2018-03-17T08:17:53.162Z,29.39
2018-03-17T08:20:19.035Z,29.80
2018-03-17T08:22:45.893Z,29.66
2018-03-17T08:25:11.723Z,29.77
2018-03-17T08:27:37.560Z,29.51
2018-03-17T08:30:03.446Z,29.58
2018-03-17T08:32:29.311Z,29.32
2018-03-17T08:34:55.175Z,29.57
2018-03-17T08:37:20.996Z,30.10
2018-03-17T08:39:46.823Z,29.92
2018-03-17T08:42:12.646Z,29.87
2018-03-17T08:44:38.460Z,29.88
2018-03-17T08:47:04.316Z,30.03
2018-03-17T08:49:30.185Z,29.79
2018-03-17T08:51:56.007Z,29.64
2018-03-17T08:54:21.855Z,29.57
2018-03-17T08:56:47.674Z,29.45
2018-03-17T08:59:13.546Z,29.46
2018-03-17T09:01:39.362Z,29.54
2018-03-17T09:04:05.183Z,29.62
2018-03-17T09:06:31.011Z,29.33
2018-03-17T09:08:56.834Z,29.55
2018-03-17T09:11:22.655Z,29.41
2018-03-17T09:13:48.487Z,29.43
2018-03-17T09:16:14.313Z,29.71
2018-03-17T09:18:40.175Z,29.73
2018-03-17T09:21:06.039Z,30.06
2018-03-17T09:23:31.870Z,29.70
2018-03-17T09:25:57.703Z,29.42
2018-03-17T09:28:23.528Z,29.93
2018-03-17T09:30:49.344Z,29.83
2018-03-17T09:33:15.178Z,29.46
2018-03-17T09:35:41.002Z,29.61
2018-03-17T09:38:06.822Z,29.59
2018-03-17T09:40:32.638Z,29.08
2018-03-17T09:42:58.467Z,29.65
2018-03-17T09:45:24.319Z,29.22
2018-03-17T09:47:50.153Z,29.11
2018-03-17T09:50:15.986Z,28.88
2018-03-17T09:52:41.812Z,29.17
2018-03-17T09:55:07.678Z,29.33
2018-03-17T09:57:33.510Z,28.97
2018-03-17T09:59:59.341Z,29.29
2018-03-17T10:02:25.210Z,29.44
2018-03-17T10:04:51.038Z,29.00
2018-03-17T10:07:16.895Z,29.37
2018-03-17T10:09:42.720Z,28.96
2018-03-17T10:12:08.549Z,29.35
2018-03-17T10:14:34.406Z,29.49
2018-03-17T10:17:00.230Z,29.35
2018-03-17T10:19:26.051Z,29.09
2018-03-17T10:21:51.870Z,29.69
2018-03-17T10:24:17.692Z,29.13
2018-03-17T10:26:43.539Z,29.33
2018-03-17T10:29:09.387Z,29.39
2018-03-17T10:31:35.259Z,29.48
2018-03-17T10:34:01.090Z,29.56
2018-03-17T10:36:26.919Z,29.66
2018-03-17T10:38:52.743Z,29.88
2018-03-17T10:41:18.575Z,29.58
2018-03-17T10:43:44.417Z,29.07
2018-03-17T10:46:10.256Z,29.16
2018-03-17T10:48:36.095Z,29.05
2018-03-17T10:51:02.036Z,29.30
2018-03-17T10:53:27.900Z,29.15
2018-03-17T10:55:53.760Z,29.05
2018-03-17T10:58:19.603Z,29.28
2018-03-17T11:00:46.280Z,29.72
2018-03-17T11:03:12.120Z,30.07
2018-03-17T11:05:37.960Z,29.24
2018-03-17T11:08:03.803Z,29.53
2018-03-17T11:10:29.655Z,29.34
2018-03-17T11:12:55.514Z,29.45
2018-03-17T11:15:21.480Z,30.18
2018-03-17T11:17:47.308Z,30.04
2018-03-17T11:20:13.175Z,29.30
2018-03-17T11:22:39.004Z,29.52
2018-03-17T11:25:04.827Z,29.96
2018-03-17T11:27:30.648Z,29.85
2018-03-17T11:29:56.468Z,30.09
2018-03-17T11:32:22.449Z,29.63
2018-03-17T11:34:48.310Z,29.93
2018-03-17T11:37:14.129Z,29.70
2018-03-17T11:39:40.919Z,30.50
2018-03-17T11:42:06.742Z,30.34
2018-03-17T11:44:32.557Z,29.95
2018-03-17T11:46:58.407Z,29.71
2018-03-17T11:49:24.244Z,30.21
2018-03-17T11:51:50.063Z,30.33
2018-03-17T11:54:15.920Z,30.26
2018-03-17T11:56:41.742Z,29.74
2018-03-17T11:59:07.608Z,29.79
2018-03-17T12:01:33.490Z,29.80
2018-03-17T12:04:00.189Z,29.91
2018-03-17T12:06:26.013Z,29.98
2018-03-17T12:08:51.840Z,30.19
2018-03-17T12:11:17.667Z,30.18
2018-03-17T12:13:43.482Z,30.08
2018-03-17T12:16:09.357Z,30.39
2018-03-17T12:18:35.225Z,29.79
2018-03-17T12:21:01.057Z,30.60
2018-03-17T12:23:26.916Z,31.01
2018-03-17T12:25:52.747Z,30.38
2018-03-17T12:28:18.607Z,30.88
2018-03-17T12:30:44.435Z,31.19
2018-03-17T12:33:10.298Z,31.13
2018-03-17T12:35:36.210Z,30.30
2018-03-17T12:38:02.042Z,30.29
2018-03-17T12:40:27.928Z,30.12
2018-03-17T12:42:53.743Z,30.41
2018-03-17T12:45:19.565Z,30.01
2018-03-17T12:47:45.393Z,29.83
2018-03-17T12:50:11.226Z,29.97
2018-03-17T12:52:37.098Z,29.74
2018-03-17T12:55:02.961Z,30.54
2018-03-17T12:57:28.782Z,30.17
2018-03-17T12:59:54.608Z,30.77
2018-03-17T13:02:20.439Z,30.21
2018-03-17T13:04:46.262Z,29.96
2018-03-17T13:07:12.096Z,29.66
2018-03-17T13:09:37.919Z,30.13
2018-03-17T13:12:03.752Z,30.72
2018-03-17T13:14:29.566Z,29.94
2018-03-17T13:16:55.394Z,30.33
2018-03-17T13:19:27.395Z,30.53
2018-03-17T13:21:53.206Z,29.64
2018-03-17T13:24:19.062Z,29.91
2018-03-17T13:26:51.100Z,30.49
2018-03-17T13:29:16.925Z,30.33
2018-03-17T13:31:42.755Z,30.28
2018-03-17T13:34:08.596Z,30.68
2018-03-17T13:36:40.580Z,29.98
2018-03-17T13:39:06.407Z,30.11
2018-03-17T13:41:32.226Z,30.12
2018-03-17T13:43:58.050Z,29.81
2018-03-17T13:46:23.906Z,29.76
2018-03-17T13:48:49.744Z,30.21
2018-03-17T13:51:15.582Z,30.36
2018-03-17T13:53:41.420Z,30.08
2018-03-17T13:56:07.250Z,30.31
2018-03-17T13:58:33.070Z,29.70
2018-03-17T14:00:58.896Z,29.99
2018-03-17T14:03:24.719Z,30.37
2018-03-17T14:05:50.563Z,29.59
2018-03-17T14:08:16.395Z,29.58
2018-03-17T14:10:42.214Z,29.75
2018-03-17T14:13:08.202Z,29.40
2018-03-17T14:15:34.063Z,29.28
2018-03-17T14:17:59.899Z,29.30
2018-03-17T14:20:25.723Z,29.25
2018-03-17T14:22:51.541Z,29.37
2018-03-17T14:25:17.368Z,29.04
2018-03-17T14:27:43.212Z,29.12
2018-03-17T14:30:09.043Z,29.05
2018-03-17T14:32:34.911Z,29.66
2018-03-17T14:35:00.732Z,29.87
2018-03-17T14:37:26.601Z,29.49
2018-03-17T14:39:52.427Z,30.28
2018-03-17T14:42:18.252Z,29.52
2018-03-17T14:44:44.085Z,29.79
2018-03-17T14:47:09.905Z,29.74
2018-03-17T14:49:35.732Z,30.52
2018-03-17T14:52:01.560Z,30.22
2018-03-17T14:54:27.389Z,30.06
2018-03-17T14:56:53.219Z,29.82
2018-03-17T14:59:19.040Z,30.26
2018-03-17T15:01:44.860Z,29.67
2018-03-17T15:04:10.691Z,29.57
2018-03-17T15:06:36.510Z,29.60
2018-03-17T15:09:02.419Z,29.55
2018-03-17T15:11:28.256Z,30.07
2018-03-17T15:13:54.985Z,29.29
2018-03-17T15:16:20.808Z,29.25
2018-03-17T15:18:46.664Z,29.84
2018-03-17T15:21:12.524Z,29.73
2018-03-17T15:23:38.396Z,29.62
2018-03-17T15:26:04.218Z,29.67
2018-03-17T15:28:30.060Z,29.63
2018-03-17T15:30:55.880Z,29.25
2018-03-17T15:33:21.770Z,29.48
2018-03-17T15:35:47.599Z,29.28
2018-03-17T15:38:13.452Z,29.63
2018-03-17T15:40:39.319Z,29.91
2018-03-17T15:43:05.179Z,29.81
2018-03-17T15:45:31.016Z,29.49
2018-03-17T15:47:56.882Z,29.32
2018-03-17T15:50:22.703Z,29.72
2018-03-17T15:52:48.555Z,29.74
2018-03-17T15:55:14.385Z,29.47
2018-03-17T15:57:40.206Z,29.49
2018-03-17T16:00:06.041Z,29.73
2018-03-17T16:02:31.901Z,29.48
2018-03-17T16:04:57.758Z,30.01
2018-03-17T16:07:23.592Z,29.83
2018-03-17T16:09:49.412Z,30.08
2018-03-17T16:12:15.233Z,29.62
2018-03-17T16:14:41.055Z,29.32
2018-03-17T16:17:13.883Z,29.54
2018-03-17T16:19:39.705Z,29.69
2018-03-17T16:22:05.531Z,29.19
2018-03-17T16:24:31.361Z,29.75
2018-03-17T16:26:57.226Z,29.03
2018-03-17T16:29:23.059Z,29.01
2018-03-17T16:31:48.928Z,29.19
2018-03-17T16:34:14.746Z,28.89
2018-03-17T16:36:40.598Z,29.07
2018-03-17T16:39:06.431Z,29.24
2018-03-17T16:41:32.254Z,28.99
2018-03-17T16:43:58.110Z,29.02
2018-03-17T16:46:23.956Z,29.16
2018-03-17T16:48:49.827Z,28.88
2018-03-17T16:51:15.673Z,29.14
2018-03-17T16:53:41.513Z,29.15
2018-03-17T16:56:07.344Z,29.47
2018-03-17T16:58:33.212Z,29.12
2018-03-17T17:00:59.031Z,29.07
2018-03-17T17:03:24.872Z,29.09
2018-03-17T17:05:50.705Z,29.16
2018-03-17T17:08:16.530Z,29.32
2018-03-17T17:10:42.365Z,29.11
2018-03-17T17:13:08.241Z,29.32
2018-03-17T17:15:34.100Z,29.23
2018-03-17T17:17:59.938Z,29.25
2018-03-17T17:20:25.768Z,28.95
2018-03-17T17:22:51.588Z,29.13
2018-03-17T17:25:17.448Z,29.27
2018-03-17T17:27:43.293Z,29.08
2018-03-17T17:30:09.112Z,29.40
2018-03-17T17:32:34.989Z,29.16
2018-03-17T17:35:00.786Z,29.22
2018-03-17T17:37:26.603Z,29.32
2018-03-17T17:39:52.424Z,29.81
2018-03-17T17:42:18.242Z,29.57
2018-03-17T17:44:44.074Z,29.33
2018-03-17T17:47:09.919Z,29.14
2018-03-17T17:49:35.739Z,29.81
2018-03-17T17:52:01.568Z,29.73
2018-03-17T17:54:27.387Z,29.42
2018-03-17T17:56:53.213Z,29.20
2018-03-17T17:59:19.034Z,29.25
2018-03-17T18:01:44.855Z,29.07
2018-03-17T18:04:10.677Z,28.88
2018-03-17T18:06:36.496Z,29.09
2018-03-17T18:09:02.407Z,28.73
2018-03-17T18:11:28.227Z,28.77
2018-03-17T18:13:54.039Z,28.42
2018-03-17T18:16:19.868Z,28.59
2018-03-17T18:18:45.693Z,28.75
2018-03-17T18:21:11.544Z,28.82
2018-03-17T18:23:37.375Z,28.49
2018-03-17T18:26:03.226Z,28.78
2018-03-17T18:28:29.055Z,28.91
2018-03-17T18:30:54.877Z,28.89
2018-03-17T18:33:20.702Z,28.51
2018-03-17T18:35:46.559Z,28.51
2018-03-17T18:38:12.383Z,28.62
2018-03-17T18:40:39.234Z,28.32
2018-03-17T18:43:05.099Z,28.54
2018-03-17T18:45:30.919Z,28.40
2018-03-17T18:47:56.740Z,28.30
2018-03-17T18:50:22.556Z,28.31
2018-03-17T18:52:48.371Z,28.46
2018-03-17T18:55:14.196Z,28.67
2018-03-17T18:57:40.022Z,28.98
2018-03-17T19:00:05.884Z,28.15
2018-03-17T19:02:31.704Z,28.14
2018-03-17T19:04:57.522Z,28.29
2018-03-17T19:07:23.383Z,28.56
2018-03-17T19:09:49.287Z,28.33
2018-03-17T19:12:15.164Z,28.70
2018-03-17T19:14:41.007Z,28.26
2018-03-17T19:17:06.831Z,28.35
2018-03-17T19:19:33.359Z,28.13
2018-03-17T19:21:59.188Z,27.97
2018-03-17T19:24:25.014Z,27.88
2018-03-17T19:26:50.890Z,28.03
2018-03-17T19:29:16.704Z,28.31
2018-03-17T19:31:42.528Z,27.95
2018-03-17T19:34:08.436Z,28.24
2018-03-17T19:36:34.274Z,28.21
2018-03-17T19:39:00.151Z,28.12
2018-03-17T19:41:26.015Z,28.09
2018-03-17T19:43:51.857Z,28.40
2018-03-17T19:46:17.703Z,28.48
2018-03-17T19:48:43.610Z,28.23
2018-03-17T19:51:09.452Z,28.40
2018-03-17T19:53:35.335Z,28.56
2018-03-17T19:56:02.090Z,28.32
2018-03-17T19:58:27.973Z,28.09
2018-03-17T20:00:54.627Z,28.21
2018-03-17T20:03:20.502Z,28.20
2018-03-17T20:05:46.356Z,28.09
2018-03-17T20:08:12.196Z,28.33
2018-03-17T20:10:38.040Z,28.71
2018-03-17T20:13:03.896Z,28.31
2018-03-17T20:15:29.739Z,27.80
2018-03-17T20:17:55.586Z,28.35
2018-03-17T20:20:21.467Z,28.19
2018-03-17T20:22:48.182Z,28.52
2018-03-17T20:25:14.847Z,28.49
2018-03-17T20:27:41.788Z,28.43
2018-03-17T20:30:07.796Z,28.64
2018-03-17T20:32:33.763Z,28.03
2018-03-17T20:34:59.658Z,28.14
2018-03-17T20:37:26.608Z,28.86
2018-03-17T20:39:52.442Z,29.32
2018-03-17T20:42:18.280Z,28.94
2018-03-17T20:44:44.132Z,28.57
2018-03-17T20:47:09.977Z,28.66
2018-03-17T20:49:35.827Z,28.89
2018-03-17T20:52:01.664Z,28.59
2018-03-17T20:54:27.503Z,29.20
2018-03-17T20:56:53.889Z,28.87
2018-03-17T20:59:20.568Z,28.57
2018-03-17T21:01:46.440Z,28.31
2018-03-17T21:04:12.331Z,29.24
2018-03-17T21:06:38.207Z,29.38
2018-03-17T21:09:04.071Z,28.27
2018-03-17T21:11:29.906Z,28.96
2018-03-17T21:13:55.798Z,28.55
2018-03-17T21:16:21.635Z,28.41
2018-03-17T21:18:47.471Z,28.67
2018-03-17T21:21:13.306Z,28.67
2018-03-17T21:23:39.133Z,28.69
2018-03-17T21:26:05.029Z,28.19
2018-03-17T21:28:30.855Z,28.47
2018-03-17T21:30:56.738Z,28.97
2018-03-17T21:33:22.576Z,28.51
2018-03-17T21:35:48.406Z,28.42
2018-03-17T21:38:14.275Z,29.03
2018-03-17T21:40:40.142Z,28.83
2018-03-17T21:43:06.027Z,28.67
2018-03-17T21:45:31.843Z,28.85
2018-03-17T21:47:57.661Z,28.88
2018-03-17T21:50:23.500Z,28.41
2018-03-17T21:52:49.323Z,27.97
2018-03-17T21:55:15.139Z,28.06
2018-03-17T21:57:40.998Z,28.30
2018-03-17T22:00:06.851Z,28.78
2018-03-17T22:02:32.671Z,28.00
2018-03-17T22:04:58.536Z,27.85
2018-03-17T22:07:24.331Z,28.02
2018-03-17T22:09:50.183Z,28.16
2018-03-17T22:12:16.026Z,28.05
2018-03-17T22:14:41.843Z,28.27
2018-03-17T22:17:07.650Z,28.08
2018-03-17T22:19:33.462Z,27.81
2018-03-17T22:21:59.278Z,27.71
2018-03-17T22:24:25.090Z,27.96
2018-03-17T22:26:50.948Z,28.17
2018-03-17T22:29:16.810Z,27.92
2018-03-17T22:31:42.618Z,28.17
2018-03-17T22:34:08.430Z,28.24
2018-03-17T22:36:34.238Z,28.38
2018-03-17T22:39:00.043Z,28.25
2018-03-17T22:41:25.862Z,27.94
2018-03-17T22:43:51.708Z,28.03
2018-03-17T22:46:17.517Z,28.07
2018-03-17T22:48:43.327Z,28.16
2018-03-17T22:51:09.138Z,28.62
2018-03-17T22:53:34.958Z,28.57
2018-03-17T22:56:00.775Z,28.15
2018-03-17T22:58:27.611Z,28.21
2018-03-17T23:00:53.458Z,28.20
2018-03-17T23:03:19.267Z,28.48
2018-03-17T23:05:45.124Z,28.92
2018-03-17T23:08:10.944Z,28.54
2018-03-17T23:10:36.789Z,28.49
2018-03-17T23:13:02.602Z,28.42
2018-03-17T23:15:28.426Z,28.44
2018-03-17T23:17:54.312Z,28.28
2018-03-17T23:20:20.134Z,28.13
2018-03-17T23:22:45.991Z,28.18
2018-03-17T23:25:11.806Z,28.14
2018-03-17T23:27:37.630Z,28.70
2018-03-17T23:30:03.521Z,28.47
2018-03-17T23:32:29.423Z,28.48
2018-03-17T23:34:55.232Z,28.64
2018-03-17T23:37:21.056Z,28.56
2018-03-17T23:39:46.886Z,29.26
2018-03-17T23:42:12.703Z,28.64
2018-03-17T23:44:38.533Z,28.53
2018-03-17T23:47:04.443Z,28.54
2018-03-17T23:49:30.274Z,28.62
2018-03-17T23:51:56.147Z,28.78
2018-03-17T23:54:21.978Z,29.25
2018-03-17T23:56:47.851Z,29.24
2018-03-17T23:59:13.728Z,28.56
